Victoria Falls, Zimbabwe

6:53 PM CAT on October 25, 2014 (GMT +0200)
Kasane | Change Station
CLOSE
Current Station
Airport
Location: Kasane,
Elevation: 3281 ft
Nearby Weather Stations

Elev 3281 ft 17.83 °S, 25.16 °E | Updated 53 minutes ago

Scattered Clouds
Scattered Clouds
97 °F
Feels Like 97 °F
N
6
Wind Variable Wind from WNW

Today
High -- | Low -- °F
--% Chance of Precip.
Yesterday
High -- | Low -- °F
Precip. -- in
5:41 AM 6:20 PM
Waxing Crescent, 3% visible
Pressure 29.86 in
Visibility 6.2 miles
Clouds Scattered Clouds 3000 ft
Dew Point 37 °F
Humidity 13%
Rainfall 0.00 in
Snow Depth Not available.
UV 0 out of 12
Pollen Not available.
Air Quality Not available.
Flu Activity Not available.
METAR FBKE 251600Z 30005KT 9999 SCT030 36/03 Q1011

More Conditions Fewer Conditions

Pressure 29.86 in
Visibility 6.2 miles
Clouds Scattered Clouds 3000 ft
Dew Point 37 °F
Humidity 13%
Rainfall 0.00 in
Snow Depth Not available.
UV 0 out of 12
Pollen Not available.
Air Quality Not available.
Flu Activity Not available.
METAR FBKE 251600Z 30005KT 9999 SCT030 36/03 Q1011

More Conditions Fewer Conditions

10-Day Weather Forecast

Almanac

Astronomy

Oct. 25, 2014 Rise Set
Actual Time 5:41 AM CAT 6:20 PM CAT
Civil Twilight 5:18 AM CAT 6:42 PM CAT
Nautical Twilight 4:52 AM CAT 7:09 PM CAT
Astronomical Twilight 4:25 AM CAT 7:35 PM CAT
Moon 6:44 AM CAT 7:50 PM CAT
Length of Visible Light 13h 24m
Length of Day
12h 39m
Tomorrow will be 0m 57s longer.
Waxing Crescent, 3% of the Moon is Illuminated
Today
Waxing Crescent
Oct 30
First Quarter
Nov 6
Full
Nov 14
Last Quarter
Nov 22
New

Today's Extremes

Country Highs Country Lows

Community

WunderPhotos

Upload Photos

1,764,901 photos uploaded!

Nearby

Snow Depth

Not available.

Earthquake Activity

City Distance Mag. Time & Date
No recent earthquake activity has been reported nearby.
Minimum magnitude displayed is 2.5.

Coastal Water Temperatures

Place Temperature
No Stations Reporting

Nearby Weather Stations